Cheek, Texas
Current Conditions -  °F | °C
As of 3:53 PM on Wednesday 17 Dec 2014 (Local Time) from KBPT Reporting Station
Broken Clouds Broken Clouds  
Wind Chill: 61°   Ceiling: 10000
Heat Index: 61°   Visibility: 10mi
Dew Point: 46°   Wind: 13mph
Humidity: 58%   Direction: 130°SE
Pressure: 30.14"   Gusts: NA
Location:  29.9571°N, 94.1363°W
Report Text: KBPT 172153Z 13011KT 10SM FEW080 BKN100 16/08 A3014 RMK AO2 SLP207 T01610078
Loading
Personal Weather Stations






























Interactive Weather Map New forecast layout! Learn more

10-Day Weather Forecast

Advertisements
Track Severe Weather on mobile